Terminal Aerodrome Forecast
Issued by NWS Charleston, WV

Current Version | Previous Version | Graphics & Text | Print | Product List | Glossary On
Versions: 1 2 3 4 5 6 7 8 9 10 11 12 13 14 15 16 17 18 19 20 21 22 23 24 25 26 27 28 29 30 31 32
000
FTUS41 KRLX 162005 AAA
TAFCRW
TAF AMD
KCRW 162005Z 1620/1718 28011G18KT P6SM OVC025
      TEMPO 1620/1623 28018G30KT 4SM -RASN OVC025
     FM170100 25011KT P6SM BKN030
     FM171000 25011KT P6SM BKN025
     FM171600 26010KT P6SM BKN030
     FM171700 26010KT P6SM BKN040=

USA.gov is the U.S. government's official web portal to all federal, state and local government web resources and services.